sensor_id;sensor_type;location;lat;lon;timestamp;temperature;humidity
5457;DHT22;2751;49.802;9.944;2023-02-03T00:00:34;7.00;1.00
5457;DHT22;2751;49.802;9.944;2023-02-03T00:03:01;7.00;1.00
5457;DHT22;2751;49.802;9.944;2023-02-03T00:05:29;7.00;99.90
5457;DHT22;2751;49.802;9.944;2023-02-03T00:07:58;7.10;1.00
5457;DHT22;2751;49.802;9.944;2023-02-03T00:10:24;7.00;1.00
5457;DHT22;2751;49.802;9.944;2023-02-03T00:12:51;7.00;99.90
5457;DHT22;2751;49.802;9.944;2023-02-03T00:15:19;7.10;1.00
5457;DHT22;2751;49.802;9.944;2023-02-03T00:17:47;7.10;1.00
5457;DHT22;2751;49.802;9.944;2023-02-03T00:20:14;7.10;1.00
5457;DHT22;2751;49.802;9.944;2023-02-03T00:22:41;7.10;99.90
5457;DHT22;2751;49.802;9.944;2023-02-03T00:25:09;7.10;99.90
5457;DHT22;2751;49.802;9.944;2023-02-03T00:27:36;7.10;1.00
5457;DHT22;2751;49.802;9.944;2023-02-03T00:30:04;7.20;99.90
5457;DHT22;2751;49.802;9.944;2023-02-03T00:32:31;7.20;99.90
5457;DHT22;2751;49.802;9.944;2023-02-03T00:34:58;7.20;1.00
5457;DHT22;2751;49.802;9.944;2023-02-03T00:37:24;7.20;1.00
5457;DHT22;2751;49.802;9.944;2023-02-03T00:39:52;7.50;1.00
5457;DHT22;2751;49.802;9.944;2023-02-03T00:42:20;7.20;99.90
5457;DHT22;2751;49.802;9.944;2023-02-03T00:44:47;7.20;16.40
5457;DHT22;2751;49.802;9.944;2023-02-03T00:47:13;7.30;1.00
5457;DHT22;2751;49.802;9.944;2023-02-03T00:49:40;7.30;1.00
5457;DHT22;2751;49.802;9.944;2023-02-03T00:52:07;7.30;1.00
5457;DHT22;2751;49.802;9.944;2023-02-03T00:54:34;7.20;1.00
5457;DHT22;2751;49.802;9.944;2023-02-03T00:57:01;7.30;1.00
5457;DHT22;2751;49.802;9.944;2023-02-03T00:59:29;7.30;99.90
5457;DHT22;2751;49.802;9.944;2023-02-03T01:01:56;7.30;1.00
5457;DHT22;2751;49.802;9.944;2023-02-03T01:04:22;7.30;99.90
5457;DHT22;2751;49.802;9.944;2023-02-03T01:06:49;7.40;99.90
5457;DHT22;2751;49.802;9.944;2023-02-03T01:09:19;7.40;99.90
5457;DHT22;2751;49.802;9.944;2023-02-03T01:11:45;7.40;99.90
5457;DHT22;2751;49.802;9.944;2023-02-03T01:14:12;7.40;99.90
5457;DHT22;2751;49.802;9.944;2023-02-03T01:16:41;7.40;99.90
5457;DHT22;2751;49.802;9.944;2023-02-03T01:19:08;7.40;99.90
5457;DHT22;2751;49.802;9.944;2023-02-03T01:21:34;7.40;99.90
5457;DHT22;2751;49.802;9.944;2023-02-03T01:24:02;7.40;99.90
5457;DHT22;2751;49.802;9.944;2023-02-03T01:26:28;7.40;99.90
5457;DHT22;2751;49.802;9.944;2023-02-03T01:28:57;7.40;1.00
5457;DHT22;2751;49.802;9.944;2023-02-03T01:31:27;7.40;99.90
5457;DHT22;2751;49.802;9.944;2023-02-03T01:33:55;7.40;99.90
5457;DHT22;2751;49.802;9.944;2023-02-03T01:36:27;7.40;99.90
5457;DHT22;2751;49.802;9.944;2023-02-03T01:38:54;7.40;99.90
5457;DHT22;2751;49.802;9.944;2023-02-03T01:41:23;7.40;99.90
5457;DHT22;2751;49.802;9.944;2023-02-03T01:43:52;7.40;99.90
5457;DHT22;2751;49.802;9.944;2023-02-03T01:46:29;7.40;99.90
5457;DHT22;2751;49.802;9.944;2023-02-03T01:49:03;7.40;1.00
5457;DHT22;2751;49.802;9.944;2023-02-03T01:51:32;7.40;99.90
5457;DHT22;2751;49.802;9.944;2023-02-03T01:54:00;7.40;99.90
5457;DHT22;2751;49.802;9.944;2023-02-03T01:56:31;7.40;1.00
5457;DHT22;2751;49.802;9.944;2023-02-03T01:59:00;7.40;1.00
5457;DHT22;2751;49.802;9.944;2023-02-03T02:01:28;7.30;29.00
5457;DHT22;2751;49.802;9.944;2023-02-03T02:03:57;7.60;99.90
5457;DHT22;2751;49.802;9.944;2023-02-03T02:06:26;7.20;1.00
5457;DHT22;2751;49.802;9.944;2023-02-03T02:08:54;7.20;99.90
5457;DHT22;2751;49.802;9.944;2023-02-03T02:11:23;7.30;1.00
5457;DHT22;2751;49.802;9.944;2023-02-03T02:13:52;7.10;1.00
5457;DHT22;2751;49.802;9.944;2023-02-03T02:16:24;7.00;1.00
5457;DHT22;2751;49.802;9.944;2023-02-03T02:19:05;7.20;75.00
5457;DHT22;2751;49.802;9.944;2023-02-03T02:21:51;7.00;76.50
5457;DHT22;2751;49.802;9.944;2023-02-03T02:24:45;6.90;1.00
5457;DHT22;2751;49.802;9.944;2023-02-03T02:27:30;6.90;1.00
5457;DHT22;2751;49.802;9.944;2023-02-03T02:30:24;7.20;1.00
5457;DHT22;2751;49.802;9.944;2023-02-03T02:33:03;7.00;1.00
5457;DHT22;2751;49.802;9.944;2023-02-03T02:35:45;7.00;99.90
5457;DHT22;2751;49.802;9.944;2023-02-03T02:38:21;7.00;99.90
5457;DHT22;2751;49.802;9.944;2023-02-03T02:40:53;7.00;99.90
5457;DHT22;2751;49.802;9.944;2023-02-03T02:43:25;7.10;1.00
5457;DHT22;2751;49.802;9.944;2023-02-03T02:45:58;7.10;99.90
5457;DHT22;2751;49.802;9.944;2023-02-03T02:48:30;7.10;74.20
5457;DHT22;2751;49.802;9.944;2023-02-03T02:51:00;7.10;1.00
5457;DHT22;2751;49.802;9.944;2023-02-03T02:53:32;7.40;99.90
5457;DHT22;2751;49.802;9.944;2023-02-03T02:56:02;7.20;99.90
5457;DHT22;2751;49.802;9.944;2023-02-03T02:58:31;7.20;99.90
5457;DHT22;2751;49.802;9.944;2023-02-03T03:01:00;7.20;64.30
5457;DHT22;2751;49.802;9.944;2023-02-03T03:03:29;7.20;1.00
5457;DHT22;2751;49.802;9.944;2023-02-03T03:05:59;7.20;1.00
5457;DHT22;2751;49.802;9.944;2023-02-03T03:08:31;7.20;1.00
5457;DHT22;2751;49.802;9.944;2023-02-03T03:11:01;7.70;1.00
5457;DHT22;2751;49.802;9.944;2023-02-03T03:13:30;7.30;99.90
5457;DHT22;2751;49.802;9.944;2023-02-03T03:15:59;7.30;1.00
5457;DHT22;2751;49.802;9.944;2023-02-03T03:18:31;7.30;99.90
5457;DHT22;2751;49.802;9.944;2023-02-03T03:21:02;7.50;99.90
5457;DHT22;2751;49.802;9.944;2023-02-03T03:23:33;7.30;99.90
5457;DHT22;2751;49.802;9.944;2023-02-03T03:26:09;7.30;99.90
5457;DHT22;2751;49.802;9.944;2023-02-03T03:28:43;7.30;1.00
5457;DHT22;2751;49.802;9.944;2023-02-03T03:31:12;7.70;1.00
5457;DHT22;2751;49.802;9.944;2023-02-03T03:33:41;7.40;99.90
5457;DHT22;2751;49.802;9.944;2023-02-03T03:36:13;7.30;99.90
5457;DHT22;2751;49.802;9.944;2023-02-03T03:38:48;7.40;99.90
5457;DHT22;2751;49.802;9.944;2023-02-03T03:41:19;7.30;1.00
5457;DHT22;2751;49.802;9.944;2023-02-03T03:43:51;7.30;1.00
5457;DHT22;2751;49.802;9.944;2023-02-03T03:46:22;7.30;99.90
5457;DHT22;2751;49.802;9.944;2023-02-03T03:48:54;7.30;99.90
5457;DHT22;2751;49.802;9.944;2023-02-03T03:51:26;7.20;1.00
5457;DHT22;2751;49.802;9.944;2023-02-03T03:53:56;7.20;99.90
5457;DHT22;2751;49.802;9.944;2023-02-03T03:56:27;7.20;99.90
5457;DHT22;2751;49.802;9.944;2023-02-03T03:58:56;7.20;1.00
5457;DHT22;2751;49.802;9.944;2023-02-03T04:01:25;7.50;16.50
5457;DHT22;2751;49.802;9.944;2023-02-03T04:03:56;7.10;1.00
5457;DHT22;2751;49.802;9.944;2023-02-03T04:06:24;7.10;1.00
5457;DHT22;2751;49.802;9.944;2023-02-03T04:08:51;7.40;1.00
5457;DHT22;2751;49.802;9.944;2023-02-03T04:11:17;7.10;1.00
5457;DHT22;2751;49.802;9.944;2023-02-03T04:13:58;7.20;1.00
5457;DHT22;2751;49.802;9.944;2023-02-03T04:16:25;7.00;1.00
5457;DHT22;2751;49.802;9.944;2023-02-03T04:18:53;7.30;1.00
5457;DHT22;2751;49.802;9.944;2023-02-03T04:21:20;7.00;1.00
5457;DHT22;2751;49.802;9.944;2023-02-03T04:23:47;7.30;99.90
5457;DHT22;2751;49.802;9.944;2023-02-03T04:26:15;7.10;99.90
5457;DHT22;2751;49.802;9.944;2023-02-03T04:28:43;7.10;99.90
5457;DHT22;2751;49.802;9.944;2023-02-03T04:31:09;7.10;99.90
5457;DHT22;2751;49.802;9.944;2023-02-03T04:33:36;7.10;1.00
5457;DHT22;2751;49.802;9.944;2023-02-03T04:36:05;7.10;1.00
5457;DHT22;2751;49.802;9.944;2023-02-03T04:38:32;7.10;1.00
5457;DHT22;2751;49.802;9.944;2023-02-03T04:40:59;7.00;1.00
5457;DHT22;2751;49.802;9.944;2023-02-03T04:43:26;7.00;99.90
5457;DHT22;2751;49.802;9.944;2023-02-03T04:45:53;7.00;99.90
5457;DHT22;2751;49.802;9.944;2023-02-03T04:48:20;7.40;99.90
5457;DHT22;2751;49.802;9.944;2023-02-03T04:50:47;7.00;99.90
5457;DHT22;2751;49.802;9.944;2023-02-03T04:53:15;7.30;99.90
5457;DHT22;2751;49.802;9.944;2023-02-03T04:55:45;7.00;99.90
5457;DHT22;2751;49.802;9.944;2023-02-03T04:58:13;7.00;99.90
5457;DHT22;2751;49.802;9.944;2023-02-03T05:00:40;7.00;99.90
5457;DHT22;2751;49.802;9.944;2023-02-03T05:03:06;7.10;99.90
5457;DHT22;2751;49.802;9.944;2023-02-03T05:05:33;7.00;99.90
5457;DHT22;2751;49.802;9.944;2023-02-03T05:08:00;7.00;1.00
5457;DHT22;2751;49.802;9.944;2023-02-03T05:10:29;7.00;99.90
5457;DHT22;2751;49.802;9.944;2023-02-03T05:12:56;7.30;99.90
5457;DHT22;2751;49.802;9.944;2023-02-03T05:15:23;7.00;99.90
5457;DHT22;2751;49.802;9.944;2023-02-03T05:17:51;7.10;41.30
5457;DHT22;2751;49.802;9.944;2023-02-03T05:20:18;7.30;1.00
5457;DHT22;2751;49.802;9.944;2023-02-03T05:22:45;7.10;99.90
5457;DHT22;2751;49.802;9.944;2023-02-03T05:25:12;7.20;99.90
5457;DHT22;2751;49.802;9.944;2023-02-03T05:27:41;7.20;1.00
5457;DHT22;2751;49.802;9.944;2023-02-03T05:30:10;7.50;1.00
5457;DHT22;2751;49.802;9.944;2023-02-03T05:32:37;7.20;1.00
5457;DHT22;2751;49.802;9.944;2023-02-03T05:35:04;7.20;1.00
5457;DHT22;2751;49.802;9.944;2023-02-03T05:37:31;7.20;99.90
5457;DHT22;2751;49.802;9.944;2023-02-03T05:39:58;7.20;1.00
5457;DHT22;2751;49.802;9.944;2023-02-03T05:42:49;7.60;1.00
5457;DHT22;2751;49.802;9.944;2023-02-03T05:45:15;7.20;1.00
5457;DHT22;2751;49.802;9.944;2023-02-03T05:47:42;7.10;1.00
5457;DHT22;2751;49.802;9.944;2023-02-03T05:50:09;7.10;1.00
5457;DHT22;2751;49.802;9.944;2023-02-03T05:52:36;7.40;1.00
5457;DHT22;2751;49.802;9.944;2023-02-03T05:55:03;7.10;1.00
5457;DHT22;2751;49.802;9.944;2023-02-03T05:57:30;7.10;1.00
5457;DHT22;2751;49.802;9.944;2023-02-03T05:59:58;7.10;99.90
5457;DHT22;2751;49.802;9.944;2023-02-03T06:02:27;7.20;99.90
5457;DHT22;2751;49.802;9.944;2023-02-03T06:04:54;7.20;99.90
5457;DHT22;2751;49.802;9.944;2023-02-03T06:07:21;7.40;99.90
5457;DHT22;2751;49.802;9.944;2023-02-03T06:09:47;7.20;99.90
5457;DHT22;2751;49.802;9.944;2023-02-03T06:12:14;7.20;35.10
5457;DHT22;2751;49.802;9.944;2023-02-03T06:14:41;7.20;1.00
5457;DHT22;2751;49.802;9.944;2023-02-03T06:17:09;7.20;1.00
5457;DHT22;2751;49.802;9.944;2023-02-03T06:19:36;7.50;1.00
5457;DHT22;2751;49.802;9.944;2023-02-03T06:22:03;7.20;99.90
5457;DHT22;2751;49.802;9.944;2023-02-03T06:24:30;7.30;99.90
5457;DHT22;2751;49.802;9.944;2023-02-03T06:26:57;7.30;99.90
5457;DHT22;2751;49.802;9.944;2023-02-03T06:29:24;7.30;1.00
5457;DHT22;2751;49.802;9.944;2023-02-03T06:31:51;7.30;1.00
5457;DHT22;2751;49.802;9.944;2023-02-03T06:34:19;7.40;1.00
5457;DHT22;2751;49.802;9.944;2023-02-03T06:36:46;7.70;99.90
5457;DHT22;2751;49.802;9.944;2023-02-03T06:39:13;7.40;1.00
5457;DHT22;2751;49.802;9.944;2023-02-03T06:41:40;7.80;99.90
5457;DHT22;2751;49.802;9.944;2023-02-03T06:44:07;7.80;99.90
5457;DHT22;2751;49.802;9.944;2023-02-03T06:46:34;7.60;1.00
5457;DHT22;2751;49.802;9.944;2023-02-03T06:49:01;7.50;1.00
5457;DHT22;2751;49.802;9.944;2023-02-03T06:51:29;7.50;1.00
5457;DHT22;2751;49.802;9.944;2023-02-03T06:53:56;7.50;99.90
5457;DHT22;2751;49.802;9.944;2023-02-03T06:56:24;7.60;99.90
5457;DHT22;2751;49.802;9.944;2023-02-03T06:58:51;7.60;99.90
5457;DHT22;2751;49.802;9.944;2023-02-03T07:01:18;7.60;1.00
5457;DHT22;2751;49.802;9.944;2023-02-03T07:03:45;7.50;1.00
5457;DHT22;2751;49.802;9.944;2023-02-03T07:06:12;7.60;1.00
5457;DHT22;2751;49.802;9.944;2023-02-03T07:08:41;7.90;99.90
5457;DHT22;2751;49.802;9.944;2023-02-03T07:11:08;7.70;99.90
5457;DHT22;2751;49.802;9.944;2023-02-03T07:13:35;7.60;99.90
5457;DHT22;2751;49.802;9.944;2023-02-03T07:16:02;7.70;99.90
5457;DHT22;2751;49.802;9.944;2023-02-03T07:18:29;7.60;99.90
5457;DHT22;2751;49.802;9.944;2023-02-03T07:20:56;7.70;99.90
5457;DHT22;2751;49.802;9.944;2023-02-03T07:23:23;7.80;99.90
5457;DHT22;2751;49.802;9.944;2023-02-03T07:25:51;7.80;99.90
5457;DHT22;2751;49.802;9.944;2023-02-03T07:28:18;7.70;99.90
5457;DHT22;2751;49.802;9.944;2023-02-03T07:30:47;8.00;99.90
5457;DHT22;2751;49.802;9.944;2023-02-03T07:33:14;7.70;19.80
5457;DHT22;2751;49.802;9.944;2023-02-03T07:35:41;8.00;1.00
5457;DHT22;2751;49.802;9.944;2023-02-03T07:38:08;7.80;1.00
5457;DHT22;2751;49.802;9.944;2023-02-03T07:40:35;7.80;1.00
5457;DHT22;2751;49.802;9.944;2023-02-03T07:43:03;7.90;1.00
5457;DHT22;2751;49.802;9.944;2023-02-03T07:45:30;7.80;1.00
5457;DHT22;2751;49.802;9.944;2023-02-03T07:47:57;8.20;1.00
5457;DHT22;2751;49.802;9.944;2023-02-03T07:50:23;7.90;1.00
5457;DHT22;2751;49.802;9.944;2023-02-03T07:52:50;7.90;1.00
5457;DHT22;2751;49.802;9.944;2023-02-03T07:55:17;7.90;1.00
5457;DHT22;2751;49.802;9.944;2023-02-03T07:57:44;7.90;1.00
5457;DHT22;2751;49.802;9.944;2023-02-03T08:00:15;7.90;1.00
5457;DHT22;2751;49.802;9.944;2023-02-03T08:02:42;8.00;99.90
5457;DHT22;2751;49.802;9.944;2023-02-03T08:05:10;8.00;99.90
5457;DHT22;2751;49.802;9.944;2023-02-03T08:07:37;8.00;99.90
5457;DHT22;2751;49.802;9.944;2023-02-03T08:10:05;8.10;1.00
5457;DHT22;2751;49.802;9.944;2023-02-03T08:12:33;8.00;99.90
5457;DHT22;2751;49.802;9.944;2023-02-03T08:15:00;8.00;99.90
5457;DHT22;2751;49.802;9.944;2023-02-03T08:17:28;8.10;1.00
5457;DHT22;2751;49.802;9.944;2023-02-03T08:19:59;8.10;1.00
5457;DHT22;2751;49.802;9.944;2023-02-03T08:22:26;7.70;99.90
5457;DHT22;2751;49.802;9.944;2023-02-03T08:24:53;8.10;99.90
5457;DHT22;2751;49.802;9.944;2023-02-03T08:27:21;8.30;99.90
5457;DHT22;2751;49.802;9.944;2023-02-03T08:29:48;8.20;1.00
5457;DHT22;2751;49.802;9.944;2023-02-03T08:32:17;8.20;99.90
5457;DHT22;2751;49.802;9.944;2023-02-03T08:34:47;8.50;1.00
5457;DHT22;2751;49.802;9.944;2023-02-03T08:37:16;8.50;1.00
5457;DHT22;2751;49.802;9.944;2023-02-03T08:39:43;8.30;1.00
5457;DHT22;2751;49.802;9.944;2023-02-03T08:42:10;8.30;1.00
5457;DHT22;2751;49.802;9.944;2023-02-03T08:44:37;8.30;1.00
5457;DHT22;2751;49.802;9.944;2023-02-03T08:47:04;8.40;1.00
5457;DHT22;2751;49.802;9.944;2023-02-03T08:49:32;8.30;1.00
5457;DHT22;2751;49.802;9.944;2023-02-03T08:52:01;8.50;1.00
5457;DHT22;2751;49.802;9.944;2023-02-03T08:54:28;8.40;63.70
5457;DHT22;2751;49.802;9.944;2023-02-03T08:56:55;8.40;1.00
5457;DHT22;2751;49.802;9.944;2023-02-03T08:59:22;8.30;99.90
5457;DHT22;2751;49.802;9.944;2023-02-03T09:01:50;8.40;1.00
5457;DHT22;2751;49.802;9.944;2023-02-03T09:04:17;8.40;1.00
5457;DHT22;2751;49.802;9.944;2023-02-03T09:06:49;8.50;1.00
5457;DHT22;2751;49.802;9.944;2023-02-03T09:09:17;8.80;99.90
5457;DHT22;2751;49.802;9.944;2023-02-03T09:11:44;8.90;99.90
5457;DHT22;2751;49.802;9.944;2023-02-03T09:14:11;8.70;99.90
5457;DHT22;2751;49.802;9.944;2023-02-03T09:16:38;8.70;99.90
5457;DHT22;2751;49.802;9.944;2023-02-03T09:19:05;9.00;99.90
5457;DHT22;2751;49.802;9.944;2023-02-03T09:21:32;9.10;99.90
5457;DHT22;2751;49.802;9.944;2023-02-03T09:23:59;8.80;99.90
5457;DHT22;2751;49.802;9.944;2023-02-03T09:26:28;9.10;99.90
5457;DHT22;2751;49.802;9.944;2023-02-03T09:28:55;8.90;99.90
5457;DHT22;2751;49.802;9.944;2023-02-03T09:31:22;9.00;99.90
5457;DHT22;2751;49.802;9.944;2023-02-03T09:33:49;9.40;99.90
5457;DHT22;2751;49.802;9.944;2023-02-03T09:36:16;9.10;99.90
5457;DHT22;2751;49.802;9.944;2023-02-03T09:38:43;9.20;99.90
5457;DHT22;2751;49.802;9.944;2023-02-03T09:41:18;9.10;1.00
5457;DHT22;2751;49.802;9.944;2023-02-03T09:43:53;9.10;99.90
5457;DHT22;2751;49.802;9.944;2023-02-03T09:46:25;9.10;99.90
5457;DHT22;2751;49.802;9.944;2023-02-03T09:48:55;9.00;99.90
5457;DHT22;2751;49.802;9.944;2023-02-03T09:51:25;9.00;99.90
5457;DHT22;2751;49.802;9.944;2023-02-03T09:53:57;8.90;1.00
5457;DHT22;2751;49.802;9.944;2023-02-03T09:56:30;8.90;99.90
5457;DHT22;2751;49.802;9.944;2023-02-03T09:58:59;9.20;99.90
5457;DHT22;2751;49.802;9.944;2023-02-03T10:01:37;9.00;99.90
5457;DHT22;2751;49.802;9.944;2023-02-03T10:04:17;9.20;99.90
5457;DHT22;2751;49.802;9.944;2023-02-03T10:06:50;8.90;99.90
5457;DHT22;2751;49.802;9.944;2023-02-03T10:09:38;8.90;99.90
5457;DHT22;2751;49.802;9.944;2023-02-03T10:12:22;9.30;99.90
5457;DHT22;2751;49.802;9.944;2023-02-03T10:15:02;8.90;1.00
5457;DHT22;2751;49.802;9.944;2023-02-03T10:17:37;9.30;1.00
5457;DHT22;2751;49.802;9.944;2023-02-03T10:20:10;9.30;1.00
5457;DHT22;2751;49.802;9.944;2023-02-03T10:22:43;9.00;99.90
5457;DHT22;2751;49.802;9.944;2023-02-03T10:25:16;9.40;99.90
5457;DHT22;2751;49.802;9.944;2023-02-03T10:27:50;9.10;99.90
5457;DHT22;2751;49.802;9.944;2023-02-03T10:30:21;9.40;99.90
5457;DHT22;2751;49.802;9.944;2023-02-03T10:32:50;9.10;99.90
5457;DHT22;2751;49.802;9.944;2023-02-03T10:35:20;9.10;99.90
5457;DHT22;2751;49.802;9.944;2023-02-03T10:37:53;9.20;99.90
5457;DHT22;2751;49.802;9.944;2023-02-03T10:40:24;9.20;99.90
5457;DHT22;2751;49.802;9.944;2023-02-03T10:42:54;9.10;99.90
5457;DHT22;2751;49.802;9.944;2023-02-03T10:45:40;9.40;99.90
5457;DHT22;2751;49.802;9.944;2023-02-03T10:48:14;9.10;99.90
5457;DHT22;2751;49.802;9.944;2023-02-03T10:50:45;9.40;99.90
5457;DHT22;2751;49.802;9.944;2023-02-03T10:53:23;9.00;99.90
5457;DHT22;2751;49.802;9.944;2023-02-03T10:55:58;9.00;99.90
5457;DHT22;2751;49.802;9.944;2023-02-03T10:58:28;9.30;99.90
5457;DHT22;2751;49.802;9.944;2023-02-03T11:01:03;9.40;99.90
5457;DHT22;2751;49.802;9.944;2023-02-03T11:03:31;9.10;99.90
5457;DHT22;2751;49.802;9.944;2023-02-03T11:06:09;9.30;99.90
5457;DHT22;2751;49.802;9.944;2023-02-03T11:08:38;9.10;99.90
5457;DHT22;2751;49.802;9.944;2023-02-03T11:11:07;9.10;99.90
5457;DHT22;2751;49.802;9.944;2023-02-03T11:13:35;9.10;99.90
5457;DHT22;2751;49.802;9.944;2023-02-03T11:16:04;9.20;99.90
5457;DHT22;2751;49.802;9.944;2023-02-03T11:18:46;9.50;99.90
5457;DHT22;2751;49.802;9.944;2023-02-03T11:21:18;9.50;99.90
5457;DHT22;2751;49.802;9.944;2023-02-03T11:23:50;9.20;99.90
5457;DHT22;2751;49.802;9.944;2023-02-03T11:26:21;9.30;99.90
5457;DHT22;2751;49.802;9.944;2023-02-03T11:28:52;9.30;99.90
5457;DHT22;2751;49.802;9.944;2023-02-03T11:31:24;9.60;99.90
5457;DHT22;2751;49.802;9.944;2023-02-03T11:33:55;9.70;99.90
5457;DHT22;2751;49.802;9.944;2023-02-03T11:36:25;9.40;92.60
5457;DHT22;2751;49.802;9.944;2023-02-03T11:39:17;9.40;99.90
5457;DHT22;2751;49.802;9.944;2023-02-03T11:41:45;9.40;99.90
5457;DHT22;2751;49.802;9.944;2023-02-03T11:44:18;9.40;99.90
5457;DHT22;2751;49.802;9.944;2023-02-03T11:46:49;9.40;99.90
5457;DHT22;2751;49.802;9.944;2023-02-03T11:49:45;9.40;99.90
5457;DHT22;2751;49.802;9.944;2023-02-03T11:55:39;9.30;99.90
5457;DHT22;2751;49.802;9.944;2023-02-03T11:58:40;9.30;99.90
5457;DHT22;2751;49.802;9.944;2023-02-03T12:01:16;9.30;99.90
5457;DHT22;2751;49.802;9.944;2023-02-03T12:04:06;9.30;99.90
5457;DHT22;2751;49.802;9.944;2023-02-03T12:09:47;9.30;99.90
5457;DHT22;2751;49.802;9.944;2023-02-03T12:12:30;9.30;99.90
5457;DHT22;2751;49.802;9.944;2023-02-03T12:15:05;8.90;99.90
5457;DHT22;2751;49.802;9.944;2023-02-03T12:17:55;9.30;99.90
5457;DHT22;2751;49.802;9.944;2023-02-03T12:20:40;9.40;99.90
5457;DHT22;2751;49.802;9.944;2023-02-03T12:23:18;9.60;99.90
5457;DHT22;2751;49.802;9.944;2023-02-03T12:26:00;9.50;99.90
5457;DHT22;2751;49.802;9.944;2023-02-03T12:28:47;9.30;99.90
5457;DHT22;2751;49.802;9.944;2023-02-03T12:31:20;9.30;99.90
5457;DHT22;2751;49.802;9.944;2023-02-03T12:33:55;9.60;99.90
5457;DHT22;2751;49.802;9.944;2023-02-03T12:36:27;9.50;99.90
5457;DHT22;2751;49.802;9.944;2023-02-03T12:39:00;9.30;99.90
5457;DHT22;2751;49.802;9.944;2023-02-03T12:41:33;9.30;99.90
5457;DHT22;2751;49.802;9.944;2023-02-03T12:44:04;9.20;99.90
5457;DHT22;2751;49.802;9.944;2023-02-03T12:46:36;9.20;99.90
5457;DHT22;2751;49.802;9.944;2023-02-03T12:49:12;9.20;99.90
5457;DHT22;2751;49.802;9.944;2023-02-03T12:51:47;9.20;99.90
5457;DHT22;2751;49.802;9.944;2023-02-03T12:54:26;9.40;99.90
5457;DHT22;2751;49.802;9.944;2023-02-03T12:57:04;9.10;99.90
5457;DHT22;2751;49.802;9.944;2023-02-03T12:59:34;9.40;99.90
5457;DHT22;2751;49.802;9.944;2023-02-03T13:02:10;9.10;99.90
5457;DHT22;2751;49.802;9.944;2023-02-03T13:04:46;9.00;99.90
5457;DHT22;2751;49.802;9.944;2023-02-03T13:07:20;8.90;99.90
5457;DHT22;2751;49.802;9.944;2023-02-03T13:09:53;8.80;99.90
5457;DHT22;2751;49.802;9.944;2023-02-03T13:12:27;8.90;99.90
5457;DHT22;2751;49.802;9.944;2023-02-03T13:15:02;8.70;99.90
5457;DHT22;2751;49.802;9.944;2023-02-03T13:17:33;9.10;99.90
5457;DHT22;2751;49.802;9.944;2023-02-03T13:20:12;8.80;99.90
5457;DHT22;2751;49.802;9.944;2023-02-03T13:22:42;8.80;99.90
5457;DHT22;2751;49.802;9.944;2023-02-03T13:25:16;8.80;99.90
5457;DHT22;2751;49.802;9.944;2023-02-03T13:27:48;8.80;99.90
5457;DHT22;2751;49.802;9.944;2023-02-03T13:30:33;8.80;99.90
5457;DHT22;2751;49.802;9.944;2023-02-03T13:36:19;8.80;99.90
5457;DHT22;2751;49.802;9.944;2023-02-03T13:39:12;8.80;99.90
5457;DHT22;2751;49.802;9.944;2023-02-03T13:41:45;8.80;99.90
5457;DHT22;2751;49.802;9.944;2023-02-03T13:44:17;8.80;99.90
5457;DHT22;2751;49.802;9.944;2023-02-03T13:46:48;8.70;99.90
5457;DHT22;2751;49.802;9.944;2023-02-03T13:49:22;8.70;99.90
5457;DHT22;2751;49.802;9.944;2023-02-03T13:51:50;8.70;99.90
5457;DHT22;2751;49.802;9.944;2023-02-03T13:54:26;8.70;99.90
5457;DHT22;2751;49.802;9.944;2023-02-03T13:56:56;8.70;1.00
5457;DHT22;2751;49.802;9.944;2023-02-03T13:59:29;8.70;1.00
5457;DHT22;2751;49.802;9.944;2023-02-03T14:05:39;8.60;1.00
5457;DHT22;2751;49.802;9.944;2023-02-03T14:11:41;8.40;99.90
5457;DHT22;2751;49.802;9.944;2023-02-03T14:23:54;8.20;1.00
5457;DHT22;2751;49.802;9.944;2023-02-03T14:26:38;8.30;1.00
5457;DHT22;2751;49.802;9.944;2023-02-03T14:29:09;8.20;99.90
5457;DHT22;2751;49.802;9.944;2023-02-03T14:31:53;8.20;1.00
5457;DHT22;2751;49.802;9.944;2023-02-03T14:34:35;8.20;1.00
5457;DHT22;2751;49.802;9.944;2023-02-03T14:37:16;8.20;99.90
5457;DHT22;2751;49.802;9.944;2023-02-03T14:40:13;8.20;99.90
5457;DHT22;2751;49.802;9.944;2023-02-03T14:42:55;8.20;1.00
5457;DHT22;2751;49.802;9.944;2023-02-03T14:45:54;8.10;49.10
5457;DHT22;2751;49.802;9.944;2023-02-03T14:48:56;8.10;1.00
5457;DHT22;2751;49.802;9.944;2023-02-03T14:51:39;8.10;1.00
5457;DHT22;2751;49.802;9.944;2023-02-03T14:54:23;8.00;1.00
5457;DHT22;2751;49.802;9.944;2023-02-03T14:57:12;8.10;89.80
5457;DHT22;2751;49.802;9.944;2023-02-03T14:59:47;8.00;99.90
5457;DHT22;2751;49.802;9.944;2023-02-03T15:02:20;8.00;99.90
5457;DHT22;2751;49.802;9.944;2023-02-03T15:04:50;8.30;99.90
5457;DHT22;2751;49.802;9.944;2023-02-03T15:07:34;8.00;99.90
5457;DHT22;2751;49.802;9.944;2023-02-03T15:10:02;7.90;1.00
5457;DHT22;2751;49.802;9.944;2023-02-03T15:12:34;7.90;99.90
5457;DHT22;2751;49.802;9.944;2023-02-03T15:15:19;7.90;1.00
5457;DHT22;2751;49.802;9.944;2023-02-03T15:17:49;7.90;1.00
5457;DHT22;2751;49.802;9.944;2023-02-03T15:20:31;7.90;1.00
5457;DHT22;2751;49.802;9.944;2023-02-03T15:22:58;7.90;1.00
5457;DHT22;2751;49.802;9.944;2023-02-03T15:25:27;7.90;1.00
5457;DHT22;2751;49.802;9.944;2023-02-03T15:28:10;7.90;1.00
5457;DHT22;2751;49.802;9.944;2023-02-03T15:30:38;7.90;1.00
5457;DHT22;2751;49.802;9.944;2023-02-03T15:33:10;7.90;1.00
5457;DHT22;2751;49.802;9.944;2023-02-03T15:35:40;8.10;1.00
5457;DHT22;2751;49.802;9.944;2023-02-03T15:38:13;8.00;1.00
5457;DHT22;2751;49.802;9.944;2023-02-03T15:40:43;8.00;1.00
5457;DHT22;2751;49.802;9.944;2023-02-03T15:43:15;8.00;1.00
5457;DHT22;2751;49.802;9.944;2023-02-03T15:45:49;8.00;1.00
5457;DHT22;2751;49.802;9.944;2023-02-03T15:48:30;8.00;1.00
5457;DHT22;2751;49.802;9.944;2023-02-03T15:51:02;7.90;1.00
5457;DHT22;2751;49.802;9.944;2023-02-03T15:53:33;7.90;1.00
5457;DHT22;2751;49.802;9.944;2023-02-03T15:56:04;7.90;1.00
5457;DHT22;2751;49.802;9.944;2023-02-03T15:58:39;7.50;1.00
5457;DHT22;2751;49.802;9.944;2023-02-03T16:01:12;7.90;1.00
5457;DHT22;2751;49.802;9.944;2023-02-03T16:03:43;7.90;1.00
5457;DHT22;2751;49.802;9.944;2023-02-03T16:06:15;7.90;1.00
5457;DHT22;2751;49.802;9.944;2023-02-03T16:08:44;8.30;1.00
5457;DHT22;2751;49.802;9.944;2023-02-03T16:11:39;8.00;1.00
5457;DHT22;2751;49.802;9.944;2023-02-03T16:14:10;8.30;1.00
5457;DHT22;2751;49.802;9.944;2023-02-03T16:16:40;8.00;1.00
5457;DHT22;2751;49.802;9.944;2023-02-03T16:19:14;8.10;99.90
5457;DHT22;2751;49.802;9.944;2023-02-03T16:21:51;8.10;1.00
5457;DHT22;2751;49.802;9.944;2023-02-03T16:24:37;8.20;99.90
5457;DHT22;2751;49.802;9.944;2023-02-03T16:27:31;8.20;99.90
5457;DHT22;2751;49.802;9.944;2023-02-03T16:30:22;8.20;99.90
5457;DHT22;2751;49.802;9.944;2023-02-03T16:33:13;8.30;1.00
5457;DHT22;2751;49.802;9.944;2023-02-03T16:36:03;8.30;1.00
5457;DHT22;2751;49.802;9.944;2023-02-03T16:38:52;8.30;1.00
5457;DHT22;2751;49.802;9.944;2023-02-03T16:41:37;8.30;1.00
5457;DHT22;2751;49.802;9.944;2023-02-03T16:44:21;8.40;1.00
5457;DHT22;2751;49.802;9.944;2023-02-03T16:47:24;8.40;1.00
5457;DHT22;2751;49.802;9.944;2023-02-03T16:50:13;8.40;1.00
5457;DHT22;2751;49.802;9.944;2023-02-03T16:52:59;8.40;1.00
5457;DHT22;2751;49.802;9.944;2023-02-03T16:55:26;8.40;1.00
5457;DHT22;2751;49.802;9.944;2023-02-03T16:57:53;8.40;99.90
5457;DHT22;2751;49.802;9.944;2023-02-03T17:00:21;8.50;99.90
5457;DHT22;2751;49.802;9.944;2023-02-03T17:02:48;8.50;99.90
5457;DHT22;2751;49.802;9.944;2023-02-03T17:05:16;8.50;1.00
5457;DHT22;2751;49.802;9.944;2023-02-03T17:07:43;8.50;12.90
5457;DHT22;2751;49.802;9.944;2023-02-03T17:10:11;8.50;99.90
5457;DHT22;2751;49.802;9.944;2023-02-03T17:12:38;8.50;99.90
5457;DHT22;2751;49.802;9.944;2023-02-03T17:15:06;8.50;99.90
5457;DHT22;2751;49.802;9.944;2023-02-03T17:17:33;8.40;99.90
5457;DHT22;2751;49.802;9.944;2023-02-03T17:20:00;8.40;1.00